Bethlehem, New Hampshire
Current Conditions -  °F | °C
As of 1:13 AM on Thursday 27 Nov 2014 (Local Time) from KHIE Reporting Station
Light Snow Light Snow  
Wind Chill: 23°   Ceiling: 1300
Heat Index: 29°   Visibility: 1mi
Dew Point: 26°   Wind: 6mph
Humidity: 89%   Direction: 340°NNW
Pressure: 29.8"   Gusts: NA
Location:  44.28°N, 71.69°W
Report Text: KHIE 270613Z AUTO 34005KT 1SM -SN BR VV013 M02/M03 A2980 RMK AO2 P0001 T10171033
Loading
Personal Weather Stations






























Interactive Weather Map New forecast layout! Learn more

10-Day Weather Forecast

Advertisements
Track Severe Weather on mobile